< < Back
Terminal Aerodrome Forecast


Current Version              Previous Versions:   1  2  3  4  5  6  7  8  9  

Terminal Aerodrome Forecast

692
FTUS44 KBMX 311140
TAFBHM
TAF
KBHM 311140Z 3112/0112 08005KT P6SM SCT007 OVC016
      TEMPO 3112/3115 6SM BR OVC007
     FM311700 04006KT P6SM OVC025
     FM312100 33004KT P6SM BKN050
     FM010100 00000KT P6SM SCT250=

Latest METAR

149
SAUS70 KWBC 311600 RRA
MTRBHM
METAR KBHM 311553Z 36004KT 10SM FEW019 BKN029 OVC055 24/21 A3017 RMK AO2
SLP209 T02440211


USA.gov is the U.S. government's official web portal to all federal, state and local government web resources and services.